createdAt,value
2022-11-08T00:03:31.225Z,48
2022-11-08T00:09:11.237Z,44
2022-11-08T00:14:51.358Z,46
2022-11-08T00:20:32.099Z,46
2022-11-08T00:26:12.172Z,56
2022-11-08T00:31:53.741Z,50
2022-11-08T00:37:35.193Z,50
2022-11-08T00:43:15.289Z,50
2022-11-08T00:48:55.355Z,56
2022-11-08T00:54:38.749Z,52
2022-11-08T01:00:20.121Z,54
2022-11-08T01:06:04.337Z,44
2022-11-08T01:11:45.811Z,42
2022-11-08T01:17:27.034Z,56
2022-11-08T01:23:07.387Z,46
2022-11-08T01:28:47.935Z,56
2022-11-08T01:34:29.273Z,54
2022-11-08T01:40:10.227Z,44
2022-11-08T01:45:51.777Z,42
2022-11-08T01:51:33.295Z,56
2022-11-08T01:57:14.815Z,50
2022-11-08T02:02:56.528Z,48
2022-11-08T02:13:39.342Z,4
2022-11-08T02:19:20.685Z,54
2022-11-08T02:25:01.074Z,56
2022-11-08T02:30:41.240Z,58
2022-11-08T02:36:22.524Z,42
2022-11-08T02:42:03.739Z,40
2022-11-08T02:47:43.834Z,48
2022-11-08T02:53:25.089Z,48
2022-11-08T02:59:06.750Z,48
2022-11-08T03:04:46.899Z,54
2022-11-08T03:10:28.338Z,46
2022-11-08T03:16:08.923Z,54
2022-11-08T03:21:49.640Z,46
2022-11-08T03:27:29.961Z,40
2022-11-08T03:33:09.933Z,50
2022-11-08T03:38:50.073Z,54
2022-11-08T03:44:31.389Z,48
2022-11-08T03:50:12.764Z,40
2022-11-08T03:55:54.311Z,50
2022-11-08T04:01:36.410Z,52
2022-11-08T04:07:18.688Z,48
2022-11-08T04:12:59.067Z,44
2022-11-08T04:18:40.819Z,48
2022-11-08T04:24:22.421Z,44
2022-11-08T04:30:02.693Z,52
2022-11-08T04:35:42.743Z,44
2022-11-08T04:41:23.983Z,48
2022-11-08T04:47:05.264Z,40
2022-11-08T04:52:46.857Z,54
2022-11-08T04:58:28.331Z,48
2022-11-08T05:04:09.666Z,58
2022-11-08T05:09:50.807Z,56
2022-11-08T05:15:30.954Z,54
2022-11-08T05:21:12.288Z,42
2022-11-08T05:26:53.715Z,54
2022-11-08T05:32:34.341Z,46
2022-11-08T05:38:15.019Z,52
2022-11-08T05:43:57.927Z,56
2022-11-08T05:49:39.919Z,52
2022-11-08T05:55:20.440Z,56
2022-11-08T06:01:01.948Z,44
2022-11-08T06:06:44.251Z,42
2022-11-08T06:12:24.906Z,46
2022-11-08T06:18:05.381Z,48
2022-11-08T06:23:45.925Z,46
2022-11-08T06:29:25.790Z,54
2022-11-08T06:35:06.124Z,46
2022-11-08T06:40:46.355Z,38
2022-11-08T06:46:26.544Z,56
2022-11-08T06:52:07.965Z,52
2022-11-08T06:57:48.107Z,52
2022-11-08T07:03:28.421Z,46
2022-11-08T07:09:08.955Z,54
2022-11-08T07:14:49.825Z,48
2022-11-08T07:20:30.745Z,56
2022-11-08T07:26:11.435Z,50
2022-11-08T07:31:52.355Z,44
2022-11-08T07:37:32.725Z,44
2022-11-08T07:43:24.888Z,52
2022-11-08T07:49:06.432Z,56
2022-11-08T07:54:46.281Z,56
2022-11-08T08:00:26.741Z,46
2022-11-08T08:06:07.558Z,42
2022-11-08T08:11:51.108Z,48
2022-11-08T08:17:31.658Z,54
2022-11-08T08:23:11.750Z,44
2022-11-08T08:28:52.142Z,42
2022-11-08T08:34:32.479Z,52
2022-11-08T08:40:12.774Z,54
2022-11-08T08:45:52.908Z,56
2022-11-08T08:51:33.551Z,52
2022-11-08T08:57:14.349Z,46
2022-11-08T09:02:54.530Z,50
2022-11-08T09:08:34.553Z,48
2022-11-08T09:14:14.711Z,44
2022-11-08T09:19:57.961Z,44
2022-11-08T09:25:38.161Z,54
2022-11-08T09:31:19.105Z,54
2022-11-08T09:36:59.723Z,44
2022-11-08T09:42:39.775Z,42
2022-11-08T09:48:20.287Z,56
2022-11-08T09:54:00.057Z,56
2022-11-08T09:59:40.161Z,56
2022-11-08T10:05:20.653Z,40
2022-11-08T10:11:00.948Z,44
2022-11-08T10:16:41.830Z,14
2022-11-08T10:22:22.703Z,48
2022-11-08T10:28:02.471Z,6
2022-11-08T10:33:45.642Z,6
2022-11-08T10:39:26.266Z,10
2022-11-08T10:45:06.509Z,4
2022-11-08T10:50:47.416Z,18
2022-11-08T10:56:27.920Z,4
2022-11-08T11:02:08.381Z,54
2022-11-08T11:07:49.267Z,38
2022-11-08T11:13:30.335Z,10
2022-11-08T11:19:10.892Z,0
2022-11-08T11:24:51.362Z,2
2022-11-08T11:30:34.450Z,24
2022-11-08T11:36:17.296Z,2
2022-11-08T11:41:57.530Z,12
2022-11-08T11:47:37.624Z,2
2022-11-08T11:53:17.901Z,2
2022-11-08T11:58:57.916Z,0
2022-11-08T12:04:38.065Z,2
2022-11-08T12:10:18.198Z,8
2022-11-08T12:15:58.694Z,56
2022-11-08T12:21:39.510Z,12
2022-11-08T12:27:20.434Z,56
2022-11-08T12:33:00.078Z,56
2022-11-08T12:38:40.093Z,44
2022-11-08T12:44:20.538Z,10
2022-11-08T12:50:01.232Z,2
2022-11-08T12:55:41.763Z,2
2022-11-08T13:01:22.499Z,64
2022-11-08T13:07:03.335Z,56
2022-11-08T13:12:43.832Z,50
2022-11-08T13:18:24.113Z,50
2022-11-08T13:24:52.983Z,48
2022-11-08T13:30:33.268Z,46
2022-11-08T13:36:13.125Z,62
2022-11-08T13:41:53.869Z,50
2022-11-08T13:47:33.988Z,56
2022-11-08T13:53:14.055Z,58
2022-11-08T13:58:54.393Z,52
2022-11-08T14:04:34.651Z,54
2022-11-08T14:10:14.717Z,50
2022-11-08T14:15:55.243Z,48
2022-11-08T14:21:35.214Z,58
2022-11-08T14:27:15.479Z,50
2022-11-08T14:32:56.144Z,54
2022-11-08T14:38:36.231Z,46
2022-11-08T14:44:16.205Z,42
2022-11-08T14:49:56.461Z,54
2022-11-08T14:55:36.615Z,56
2022-11-08T15:01:16.865Z,56
2022-11-08T15:06:58.044Z,56
2022-11-08T15:12:38.654Z,48
2022-11-08T15:18:18.635Z,48
2022-11-08T15:23:58.934Z,56
2022-11-08T15:29:38.828Z,46
2022-11-08T15:35:18.801Z,54
2022-11-08T15:40:58.934Z,48
2022-11-08T15:46:38.820Z,48
2022-11-08T15:52:21.906Z,48
2022-11-08T15:58:01.915Z,56
2022-11-08T16:03:42.254Z,48
2022-11-08T16:09:24.398Z,62
2022-11-08T16:15:04.815Z,46
2022-11-08T16:20:44.738Z,46
2022-11-08T16:26:24.768Z,48
2022-11-08T16:32:04.957Z,44
2022-11-08T16:37:45.069Z,52
2022-11-08T16:43:25.076Z,58
2022-11-08T16:49:05.175Z,44
2022-11-08T16:54:45.978Z,42
2022-11-08T17:00:25.847Z,48
2022-11-08T17:06:06.305Z,46
2022-11-08T17:11:46.761Z,48
2022-11-08T17:17:26.918Z,54
2022-11-08T17:23:06.915Z,56
2022-11-08T17:28:47.177Z,56
2022-11-08T17:34:27.011Z,50
2022-11-08T17:40:07.370Z,56
2022-11-08T17:45:48.226Z,40
2022-11-08T17:51:28.434Z,40
2022-11-08T17:57:08.278Z,52
2022-11-08T18:02:48.226Z,56
2022-11-08T18:08:28.539Z,50
2022-11-08T18:14:11.614Z,46
2022-11-08T18:19:51.663Z,54
2022-11-08T18:31:03.781Z,46
2022-11-08T18:36:43.937Z,48
2022-11-08T18:42:24.006Z,52
2022-11-08T18:48:04.203Z,54
2022-11-08T18:53:44.123Z,60
2022-11-08T18:59:24.240Z,52
2022-11-08T19:05:05.182Z,56
2022-11-08T19:10:45.693Z,50
2022-11-08T19:16:26.052Z,46
2022-11-08T19:22:06.175Z,46
2022-11-08T19:27:48.103Z,54
2022-11-08T19:33:28.197Z,56
2022-11-08T19:39:09.542Z,46
2022-11-08T19:44:49.930Z,40
2022-11-08T19:50:29.844Z,46
2022-11-08T19:56:10.258Z,46
2022-11-08T20:01:51.254Z,54
2022-11-08T20:07:32.456Z,56
2022-11-08T20:13:12.690Z,48
2022-11-08T20:18:52.871Z,44
2022-11-08T20:24:33.115Z,58
2022-11-08T20:30:13.685Z,50
2022-11-08T20:35:53.563Z,50
2022-11-08T20:41:33.676Z,56
2022-11-08T20:47:14.340Z,56
2022-11-08T20:52:54.693Z,68
2022-11-08T20:58:34.541Z,60
2022-11-08T21:04:16.012Z,56
2022-11-08T21:10:44.371Z,40
2022-11-08T21:17:22.370Z,48
2022-11-08T21:23:03.173Z,52
2022-11-08T21:28:43.608Z,48
2022-11-08T21:34:33.109Z,52
2022-11-08T21:40:13.690Z,48
2022-11-08T21:45:53.825Z,46
2022-11-08T21:51:34.002Z,48
2022-11-08T21:57:14.100Z,46
2022-11-08T22:02:54.320Z,52
2022-11-08T22:08:34.427Z,56
2022-11-08T22:14:14.330Z,44
2022-11-08T22:19:54.196Z,54
2022-11-08T22:25:34.361Z,58
2022-11-08T22:31:14.682Z,52
2022-11-08T22:36:55.100Z,46
2022-11-08T22:42:35.668Z,56
2022-11-08T22:48:17.204Z,52
2022-11-08T22:53:58.839Z,38
2022-11-08T22:59:38.678Z,48
2022-11-08T23:05:21.440Z,56
2022-11-08T23:11:01.542Z,50
2022-11-08T23:16:41.875Z,56
2022-11-08T23:22:22.204Z,42
2022-11-08T23:28:02.228Z,58
2022-11-08T23:33:42.253Z,46
2022-11-08T23:39:22.335Z,62
2022-11-08T23:45:02.586Z,42
2022-11-08T23:50:42.718Z,44
2022-11-08T23:56:23.156Z,48
